Time;durP1;ratioP1;P1;durP2;ratioP2;P2;SDS_P1;SDS_P2;PMS_P1;PMS_P2;Temp;Humidity;BMP_temperature;BMP_pressure;BME280_temperature;BME280_humidity;BME280_pressure;Samples;Min_cycle;Max_cycle;Signal;HPM_P1;HPM_P2
2022/10/05 00:00:15;;;;;;;12.93;6.90;;;;;;;;;;5050917;28;20099;-62
2022/10/05 00:02:41;;;;;;;10.63;6.80;;;;;;;;;;5050653;28;20419;-62
2022/10/05 00:05:19;;;;;;;11.77;6.20;;;;;;;;;;5050223;28;20072;-62
2022/10/05 00:07:45;;;;;;;9.25;6.50;;;;;;;;;;5050605;28;20120;-62
2022/10/05 00:10:14;;;;;;;8.38;6.05;;;;;;;;;;5050111;28;20053;-62
2022/10/05 00:12:40;;;;;;;12.98;6.43;;;;;;;;;;5050155;28;20048;-62
2022/10/05 00:15:09;;;;;;;11.57;6.20;;;;;;;;;;5050453;28;20047;-62
2022/10/05 00:17:35;;;;;;;11.23;6.43;;;;;;;;;;5050555;28;20033;-62
2022/10/05 00:20:13;;;;;;;12.27;5.90;;;;;;;;;;5050043;28;20433;-62
2022/10/05 00:22:39;;;;;;;6.93;5.35;;;;;;;;;;5050384;28;20566;-62
2022/10/05 00:25:12;;;;;;;11.07;5.93;;;;;;;;;;5050496;28;20044;-62
2022/10/05 00:27:38;;;;;;;8.63;6.13;;;;;;;;;;5050056;28;20123;-62
2022/10/05 00:30:12;;;;;;;10.60;6.00;;;;;;;;;;5050424;28;20440;-62
2022/10/05 00:32:38;;;;;;;8.55;5.40;;;;;;;;;;5050189;28;20037;-62
2022/10/05 00:35:05;;;;;;;7.90;4.65;;;;;;;;;;5050143;28;20056;-62
2022/10/05 00:37:31;;;;;;;10.50;5.35;;;;;;;;;;5050421;28;20404;-62
2022/10/05 00:39:57;;;;;;;12.27;5.10;;;;;;;;;;5050318;28;20670;-62
2022/10/05 00:42:23;;;;;;;5.90;4.50;;;;;;;;;;5049692;28;20037;-62
2022/10/05 00:45:01;;;;;;;8.27;5.00;;;;;;;;;;5051699;28;20091;-62
2022/10/05 00:47:41;;;;;;;7.68;5.30;;;;;;;;;;5054161;28;20049;-62
2022/10/05 00:50:22;;;;;;;8.95;5.10;;;;;;;;;;5053607;28;20041;-62
2022/10/05 00:53:06;;;;;;;6.97;4.55;;;;;;;;;;5035936;28;20036;-62
2022/10/05 00:55:39;;;;;;;9.43;4.82;;;;;;;;;;5053567;28;20051;-62
2022/10/05 00:58:05;;;;;;;7.22;4.95;;;;;;;;;;5053846;28;20044;-62
2022/10/05 01:00:33;;;;;;;6.82;4.68;;;;;;;;;;5053693;28;20056;-62
2022/10/05 01:03:08;;;;;;;10.75;5.60;;;;;;;;;;5053424;28;20041;-62
2022/10/05 01:05:38;;;;;;;7.82;5.25;;;;;;;;;;5053700;28;20037;-62
2022/10/05 01:08:34;;;;;;;6.65;4.75;;;;;;;;;;5053693;28;20045;-62
2022/10/05 01:11:13;;;;;;;8.45;5.70;;;;;;;;;;5035826;28;20061;-62
2022/10/05 01:13:50;;;;;;;8.43;5.13;;;;;;;;;;5053453;28;20049;-62
2022/10/05 01:16:36;;;;;;;8.27;5.90;;;;;;;;;;5053544;28;20135;-62
2022/10/05 01:19:05;;;;;;;10.43;5.90;;;;;;;;;;5039130;28;20146;-62
2022/10/05 01:21:35;;;;;;;11.55;6.32;;;;;;;;;;5053649;28;20072;-62
2022/10/05 01:24:19;;;;;;;12.98;6.95;;;;;;;;;;5053622;28;20452;-62
2022/10/05 01:26:51;;;;;;;14.13;6.05;;;;;;;;;;5052923;28;20535;-62
2022/10/05 01:29:17;;;;;;;12.18;6.38;;;;;;;;;;5035533;28;20060;-62
2022/10/05 01:31:52;;;;;;;8.90;6.20;;;;;;;;;;5053369;28;20403;-62
2022/10/05 01:34:33;;;;;;;10.25;6.43;;;;;;;;;;5053026;28;20033;-62
2022/10/05 01:37:29;;;;;;;9.20;6.07;;;;;;;;;;5053514;28;20095;-62
2022/10/05 01:40:14;;;;;;;11.77;6.32;;;;;;;;;;5035354;28;20061;-62
2022/10/05 01:42:48;;;;;;;9.55;6.30;;;;;;;;;;5053149;28;20055;-62
2022/10/05 01:45:21;;;;;;;10.00;6.60;;;;;;;;;;5053053;28;20045;-62
2022/10/05 01:47:50;;;;;;;9.02;6.05;;;;;;;;;;5034337;28;20037;-62
2022/10/05 01:50:31;;;;;;;10.88;6.88;;;;;;;;;;5052705;28;20075;-62
2022/10/05 01:53:20;;;;;;;11.25;6.47;;;;;;;;;;5034996;28;20048;-62
2022/10/05 01:55:46;;;;;;;11.13;6.50;;;;;;;;;;5051814;28;20037;-62
2022/10/05 01:58:45;;;;;;;10.60;6.55;;;;;;;;;;5034574;28;20072;-62
2022/10/05 02:01:17;;;;;;;10.40;6.80;;;;;;;;;;5008706;28;20114;-62
2022/10/05 02:03:55;;;;;;;9.93;7.10;;;;;;;;;;5052494;28;20099;-62
2022/10/05 02:06:23;;;;;;;11.43;6.88;;;;;;;;;;5052820;28;20075;-62
2022/10/05 02:08:54;;;;;;;11.80;7.75;;;;;;;;;;5052863;28;20076;-62
2022/10/05 02:11:20;;;;;;;11.63;7.07;;;;;;;;;;5052073;28;20057;-62
2022/10/05 02:13:48;;;;;;;11.10;7.15;;;;;;;;;;5052717;28;20033;-62
2022/10/05 02:16:37;;;;;;;13.10;7.68;;;;;;;;;;5052682;28;20063;-62
2022/10/05 02:19:16;;;;;;;10.52;7.05;;;;;;;;;;5041218;28;20045;-62
2022/10/05 02:21:43;;;;;;;11.55;6.32;;;;;;;;;;5034325;28;20119;-62
2022/10/05 02:24:12;;;;;;;10.95;7.45;;;;;;;;;;5052323;28;20032;-62
2022/10/05 02:26:39;;;;;;;12.13;7.20;;;;;;;;;;5052398;28;20086;-62
2022/10/05 02:29:10;;;;;;;14.27;8.00;;;;;;;;;;5052109;28;20128;-62
2022/10/05 02:31:39;;;;;;;12.93;7.00;;;;;;;;;;5033917;28;20483;-62
2022/10/05 02:34:21;;;;;;;13.05;7.07;;;;;;;;;;5052070;28;20384;-62
2022/10/05 02:36:51;;;;;;;13.80;7.22;;;;;;;;;;5051661;28;20068;-62
2022/10/05 02:39:22;;;;;;;13.82;7.75;;;;;;;;;;5051431;28;20045;-62
2022/10/05 02:41:58;;;;;;;13.65;7.35;;;;;;;;;;5052099;28;20136;-62
2022/10/05 02:44:33;;;;;;;11.10;7.53;;;;;;;;;;5052030;28;20055;-62
2022/10/05 02:47:23;;;;;;;12.35;6.65;;;;;;;;;;5033194;28;20080;-62
2022/10/05 02:50:00;;;;;;;10.35;7.20;;;;;;;;;;5023327;28;20111;-62
2022/10/05 02:52:28;;;;;;;11.38;7.20;;;;;;;;;;5051987;28;20041;-62
2022/10/05 02:55:14;;;;;;;10.48;6.68;;;;;;;;;;5051530;28;20041;-62
2022/10/05 02:57:59;;;;;;;13.55;7.05;;;;;;;;;;5033846;28;20047;-62
2022/10/05 03:00:25;;;;;;;12.27;7.15;;;;;;;;;;5033637;28;20048;-62
2022/10/05 03:02:51;;;;;;;12.10;7.57;;;;;;;;;;5051452;28;20056;-62
2022/10/05 03:05:19;;;;;;;12.43;7.45;;;;;;;;;;5051552;28;20049;-62
2022/10/05 03:07:54;;;;;;;14.27;6.97;;;;;;;;;;5050986;28;20518;-62
2022/10/05 03:10:26;;;;;;;9.68;6.88;;;;;;;;;;5050926;28;20106;-62
2022/10/05 03:12:52;;;;;;;9.32;7.18;;;;;;;;;;5051419;28;20051;-62
2022/10/05 03:15:36;;;;;;;14.20;7.10;;;;;;;;;;5051508;28;20036;-62
2022/10/05 03:18:16;;;;;;;9.10;6.65;;;;;;;;;;5050689;28;20032;-62
2022/10/05 03:21:01;;;;;;;9.40;6.93;;;;;;;;;;5051323;28;20037;-62
2022/10/05 03:24:02;;;;;;;11.82;6.93;;;;;;;;;;5050947;28;20048;-62
2022/10/05 03:26:36;;;;;;;10.90;6.82;;;;;;;;;;4953745;28;20047;-62
2022/10/05 03:29:08;;;;;;;10.40;6.47;;;;;;;;;;5038960;28;20052;-62
2022/10/05 03:31:37;;;;;;;9.33;6.33;;;;;;;;;;5050770;28;20043;-62
2022/10/05 03:34:07;;;;;;;11.95;6.45;;;;;;;;;;5051029;28;20325;-62
2022/10/05 03:36:43;;;;;;;11.65;6.80;;;;;;;;;;5050783;28;20479;-62
2022/10/05 03:39:28;;;;;;;12.07;6.30;;;;;;;;;;5050792;28;20052;-62
2022/10/05 03:42:03;;;;;;;14.68;6.93;;;;;;;;;;5051032;28;20037;-62
2022/10/05 03:44:32;;;;;;;9.73;6.40;;;;;;;;;;5050724;28;20045;-62
2022/10/05 03:47:04;;;;;;;9.45;6.47;;;;;;;;;;5050168;28;20045;-62
2022/10/05 03:49:39;;;;;;;11.38;6.32;;;;;;;;;;5050816;28;20041;-62
2022/10/05 03:52:08;;;;;;;11.88;6.40;;;;;;;;;;5050639;28;20049;-62
2022/10/05 03:54:38;;;;;;;10.27;6.88;;;;;;;;;;5050445;28;20044;-62
2022/10/05 03:57:04;;;;;;;9.23;6.85;;;;;;;;;;5050669;28;20385;-62
2022/10/05 03:59:33;;;;;;;10.25;6.60;;;;;;;;;;5050803;28;20048;-62
2022/10/05 04:02:22;;;;;;;13.00;6.80;;;;;;;;;;5050344;28;20075;-62
2022/10/05 04:04:52;;;;;;;12.25;7.30;;;;;;;;;;5039910;28;20049;-62
2022/10/05 04:07:24;;;;;;;12.20;6.72;;;;;;;;;;5050650;28;20190;-62
2022/10/05 04:09:50;;;;;;;14.75;7.40;;;;;;;;;;5049908;28;20055;-62
2022/10/05 04:12:32;;;;;;;9.50;6.88;;;;;;;;;;5050538;28;20041;-62
2022/10/05 04:15:14;;;;;;;12.02;6.68;;;;;;;;;;5050713;28;20040;-62
2022/10/05 04:17:46;;;;;;;11.10;6.85;;;;;;;;;;5050487;28;20037;-62
2022/10/05 04:20:15;;;;;;;10.80;6.93;;;;;;;;;;5034671;28;20483;-62
2022/10/05 04:22:45;;;;;;;14.68;7.05;;;;;;;;;;5036140;28;20049;-62
2022/10/05 04:25:17;;;;;;;10.80;7.10;;;;;;;;;;5036555;28;20128;-62
2022/10/05 04:28:01;;;;;;;10.63;6.70;;;;;;;;;;5054464;28;20052;-62
2022/10/05 04:30:29;;;;;;;12.05;7.03;;;;;;;;;;5054020;28;20041;-62
2022/10/05 04:32:57;;;;;;;14.10;7.70;;;;;;;;;;5054376;28;20468;-62
2022/10/05 04:35:42;;;;;;;11.52;7.72;;;;;;;;;;5054239;28;20375;-62
2022/10/05 04:38:26;;;;;;;12.07;7.70;;;;;;;;;;5053515;28;20033;-62
2022/10/05 04:41:07;;;;;;;11.10;8.13;;;;;;;;;;5054247;28;20036;-62
2022/10/05 04:43:33;;;;;;;13.45;7.38;;;;;;;;;;5036386;28;20099;-62
2022/10/05 04:46:05;;;;;;;10.43;7.47;;;;;;;;;;5053892;28;20414;-62
2022/10/05 04:48:31;;;;;;;15.20;7.75;;;;;;;;;;5054282;28;20037;-62
2022/10/05 04:51:03;;;;;;;11.60;7.55;;;;;;;;;;5054189;28;20436;-62
2022/10/05 04:53:45;;;;;;;15.35;7.55;;;;;;;;;;5053777;28;20106;-62
2022/10/05 04:56:17;;;;;;;13.45;7.35;;;;;;;;;;5054361;28;20470;-62
2022/10/05 04:58:43;;;;;;;9.30;6.78;;;;;;;;;;5053802;28;20076;-62
2022/10/05 05:01:28;;;;;;;14.07;7.25;;;;;;;;;;5053484;28;20080;-62
2022/10/05 05:03:54;;;;;;;13.80;7.80;;;;;;;;;;5053869;28;20107;-62
2022/10/05 05:06:29;;;;;;;11.25;7.13;;;;;;;;;;5053355;28;20053;-62
2022/10/05 05:09:13;;;;;;;12.27;7.53;;;;;;;;;;5053267;28;20073;-62
2022/10/05 05:11:39;;;;;;;15.05;7.57;;;;;;;;;;5053364;28;20052;-62
2022/10/05 05:14:05;;;;;;;11.40;7.25;;;;;;;;;;5053737;28;20483;-62
2022/10/05 05:16:55;;;;;;;10.32;7.43;;;;;;;;;;5053163;28;20044;-62
2022/10/05 05:19:33;;;;;;;13.30;7.25;;;;;;;;;;5015795;28;20053;-62
2022/10/05 05:22:03;;;;;;;10.73;7.10;;;;;;;;;;5052790;28;20049;-62
2022/10/05 05:24:40;;;;;;;11.68;7.40;;;;;;;;;;5053500;28;20099;-62
2022/10/05 05:27:09;;;;;;;11.95;7.72;;;;;;;;;;5053205;28;20044;-62
2022/10/05 05:29:41;;;;;;;15.75;7.47;;;;;;;;;;5052854;28;20037;-62
2022/10/05 05:32:07;;;;;;;;;;;;;;;;;;5053533;28;20676;-62
2022/10/05 05:34:52;;;;;;;12.65;7.50;;;;;;;;;;5053320;28;20050;-62
2022/10/05 05:37:31;;;;;;;16.45;7.57;;;;;;;;;;5052725;28;20052;-62
2022/10/05 05:40:09;;;;;;;11.90;7.22;;;;;;;;;;5053208;28;20037;-62
2022/10/05 05:42:35;;;;;;;10.73;7.82;;;;;;;;;;5053175;28;20041;-62
2022/10/05 05:45:06;;;;;;;10.10;7.35;;;;;;;;;;5052694;28;20551;-62
2022/10/05 05:47:38;;;;;;;13.23;8.50;;;;;;;;;;5035071;28;20040;-62
2022/10/05 05:50:22;;;;;;;12.80;8.07;;;;;;;;;;5052947;28;20041;-62
2022/10/05 05:52:54;;;;;;;15.10;8.40;;;;;;;;;;5052800;28;20053;-62
2022/10/05 05:55:26;;;;;;;12.90;7.20;;;;;;;;;;5052954;28;20037;-62
2022/10/05 05:58:15;;;;;;;11.40;7.85;;;;;;;;;;5052505;28;20079;-62
2022/10/05 06:00:45;;;;;;;15.88;8.35;;;;;;;;;;5041637;28;20059;-62
2022/10/05 06:03:32;;;;;;;13.57;8.55;;;;;;;;;;5055101;28;20052;-62
2022/10/05 06:06:01;;;;;;;15.13;8.85;;;;;;;;;;5072229;28;20056;-62
2022/10/05 06:08:34;;;;;;;12.95;8.32;;;;;;;;;;5067853;28;20068;-62
2022/10/05 06:11:09;;;;;;;12.77;8.10;;;;;;;;;;5051348;28;20399;-62
2022/10/05 06:13:37;;;;;;;13.05;8.30;;;;;;;;;;5051798;28;20463;-62
2022/10/05 06:16:08;;;;;;;11.45;8.50;;;;;;;;;;5051998;28;20029;-62
2022/10/05 06:18:36;;;;;;;13.98;8.55;;;;;;;;;;5052020;28;20538;-62
2022/10/05 06:21:06;;;;;;;13.65;8.25;;;;;;;;;;5051648;28;20048;-62
2022/10/05 06:23:35;;;;;;;10.68;7.63;;;;;;;;;;5051784;28;20040;-62
2022/10/05 06:26:11;;;;;;;17.58;9.10;;;;;;;;;;5051746;28;20040;-62
2022/10/05 06:28:38;;;;;;;14.82;8.07;;;;;;;;;;5033467;28;20117;-62
2022/10/05 06:31:04;;;;;;;11.35;8.48;;;;;;;;;;5051905;28;20037;-62
2022/10/05 06:33:35;;;;;;;13.40;8.15;;;;;;;;;;5051715;28;20086;-62
2022/10/05 06:36:14;;;;;;;13.93;8.35;;;;;;;;;;5051472;28;20056;-62
2022/10/05 06:38:59;;;;;;;14.00;8.60;;;;;;;;;;5033809;28;20048;-62
2022/10/05 06:41:48;;;;;;;10.65;7.80;;;;;;;;;;5045733;28;20041;-62
2022/10/05 06:44:25;;;;;;;15.90;8.35;;;;;;;;;;5013925;28;20079;-62
2022/10/05 06:47:17;;;;;;;13.98;8.10;;;;;;;;;;5052476;28;20127;-62
2022/10/05 06:49:55;;;;;;;14.43;7.40;;;;;;;;;;5051447;28;20037;-62
2022/10/05 06:52:21;;;;;;;10.13;7.63;;;;;;;;;;5059781;28;20047;-62
2022/10/05 06:54:55;;;;;;;12.20;7.88;;;;;;;;;;5051289;28;20367;-62
2022/10/05 06:57:24;;;;;;;10.20;7.40;;;;;;;;;;5051050;28;20365;-62
2022/10/05 07:00:02;;;;;;;10.30;7.28;;;;;;;;;;5050758;28;20056;-62
2022/10/05 07:02:44;;;;;;;10.35;7.55;;;;;;;;;;5055065;28;20096;-62
2022/10/05 07:05:38;;;;;;;10.50;7.38;;;;;;;;;;5033788;28;20056;-62
2022/10/05 07:08:07;;;;;;;9.75;7.20;;;;;;;;;;5049959;28;20048;-62
2022/10/05 07:10:40;;;;;;;9.75;6.75;;;;;;;;;;5050017;28;20084;-62
2022/10/05 07:13:06;;;;;;;8.68;7.00;;;;;;;;;;5049994;28;20120;-62
2022/10/05 07:15:41;;;;;;;9.80;6.72;;;;;;;;;;5050602;28;20041;-62
2022/10/05 07:18:13;;;;;;;9.32;6.32;;;;;;;;;;5050252;28;20040;-63
2022/10/05 07:20:58;;;;;;;9.57;6.30;;;;;;;;;;5050231;28;20041;-63
2022/10/05 07:23:36;;;;;;;7.35;6.00;;;;;;;;;;5050741;28;20076;-63
2022/10/05 07:26:02;;;;;;;7.70;5.68;;;;;;;;;;5054529;28;20067;-63
2022/10/05 07:28:44;;;;;;;8.23;5.43;;;;;;;;;;5032384;28;20040;-63
2022/10/05 07:31:22;;;;;;;7.50;5.78;;;;;;;;;;5050624;28;20041;-63
2022/10/05 07:33:51;;;;;;;9.15;5.90;;;;;;;;;;5050641;28;20037;-63
2022/10/05 07:39:05;;;;;;;8.45;5.57;;;;;;;;;;5045429;28;20049;-63
2022/10/05 07:41:31;;;;;;;8.65;6.30;;;;;;;;;;5031083;28;20140;-63
2022/10/05 07:43:57;;;;;;;10.18;6.32;;;;;;;;;;5061426;28;20642;-63
2022/10/05 07:46:28;;;;;;;8.88;6.72;;;;;;;;;;5054789;28;20711;-63
2022/10/05 07:49:06;;;;;;;8.73;5.82;;;;;;;;;;5031949;28;20072;-63
2022/10/05 07:51:36;;;;;;;11.23;7.40;;;;;;;;;;5053551;28;20033;-63
2022/10/05 07:54:09;;;;;;;10.75;6.38;;;;;;;;;;5069662;28;20382;-63
2022/10/05 07:56:43;;;;;;;9.80;6.75;;;;;;;;;;5049131;28;20071;-63
2022/10/05 07:59:19;;;;;;;8.63;6.68;;;;;;;;;;5049316;28;20371;-63
2022/10/05 08:01:48;;;;;;;9.35;6.93;;;;;;;;;;5050314;28;20037;-63
2022/10/05 08:04:16;;;;;;;10.82;6.75;;;;;;;;;;5050019;28;20495;-62
2022/10/05 08:06:51;;;;;;;8.90;6.90;;;;;;;;;;5049034;28;20090;-63
2022/10/05 08:09:17;;;;;;;9.02;6.40;;;;;;;;;;5049095;28;20045;-63
2022/10/05 08:11:52;;;;;;;9.40;6.80;;;;;;;;;;5049120;28;20360;-63
2022/10/05 08:14:24;;;;;;;8.55;6.25;;;;;;;;;;5049422;28;20040;-64
2022/10/05 08:16:52;;;;;;;11.40;7.00;;;;;;;;;;5049689;28;20029;-63
2022/10/05 08:19:25;;;;;;;7.57;6.18;;;;;;;;;;5049833;28;20045;-63
2022/10/05 08:21:55;;;;;;;9.10;6.50;;;;;;;;;;5049625;28;20703;-63
2022/10/05 08:24:27;;;;;;;8.68;6.50;;;;;;;;;;5049670;28;20049;-62
2022/10/05 08:27:06;;;;;;;6.70;5.90;;;;;;;;;;5047970;28;20098;-63
2022/10/05 08:29:37;;;;;;;8.93;6.00;;;;;;;;;;5036480;28;20041;-62
2022/10/05 08:32:23;;;;;;;8.23;6.43;;;;;;;;;;5048540;28;20041;-63
2022/10/05 08:35:01;;;;;;;8.77;5.78;;;;;;;;;;5031489;28;20051;-63
2022/10/05 08:37:31;;;;;;;11.15;6.47;;;;;;;;;;5049585;28;20048;-63
2022/10/05 08:40:13;;;;;;;9.43;6.15;;;;;;;;;;5050743;28;20045;-63
2022/10/05 08:42:39;;;;;;;;;;;;;;;;;;5049060;28;20455;-63
2022/10/05 08:45:24;;;;;;;9.20;5.85;;;;;;;;;;5047761;28;19960;-63
2022/10/05 08:48:09;;;;;;;8.50;6.35;;;;;;;;;;5045328;28;20455;-63
2022/10/05 08:50:44;;;;;;;8.98;6.53;;;;;;;;;;5048776;28;20079;-63
2022/10/05 08:53:29;;;;;;;7.28;5.82;;;;;;;;;;5058954;28;20128;-63
2022/10/05 08:56:01;;;;;;;7.65;6.15;;;;;;;;;;5049294;28;20041;-63
2022/10/05 08:58:46;;;;;;;7.47;5.63;;;;;;;;;;5052509;28;20084;-63
2022/10/05 09:01:12;;;;;;;7.85;6.03;;;;;;;;;;5055002;28;20124;-63
2022/10/05 09:03:57;;;;;;;7.18;5.82;;;;;;;;;;5049738;28;20062;-63
2022/10/05 09:06:29;;;;;;;7.40;5.13;;;;;;;;;;5050228;28;20137;-63
2022/10/05 09:09:21;;;;;;;10.00;5.30;;;;;;;;;;5048638;28;20037;-63
2022/10/05 09:11:57;;;;;;;7.68;5.75;;;;;;;;;;4990581;28;20060;-63
2022/10/05 09:14:23;;;;;;;7.78;5.25;;;;;;;;;;5062636;28;20045;-63
2022/10/05 09:16:55;;;;;;;7.47;4.97;;;;;;;;;;5060214;28;20079;-63
2022/10/05 09:19:21;;;;;;;;;;;;;;;;;;5058448;28;20426;-63
2022/10/05 09:22:00;;;;;;;6.50;5.20;;;;;;;;;;5062894;28;20232;-63
2022/10/05 09:24:45;;;;;;;5.88;4.40;;;;;;;;;;5047952;28;20345;-63
2022/10/05 09:27:15;;;;;;;6.30;3.92;;;;;;;;;;5051823;28;20048;-63
2022/10/05 09:29:53;;;;;;;7.32;4.35;;;;;;;;;;5028050;28;20045;-63
2022/10/05 09:32:38;;;;;;;5.95;4.40;;;;;;;;;;5051944;28;20053;-63
2022/10/05 09:35:24;;;;;;;6.63;4.20;;;;;;;;;;5053036;28;20164;-63
2022/10/05 09:38:08;;;;;;;5.15;4.30;;;;;;;;;;5041543;28;20056;-63
2022/10/05 09:40:40;;;;;;;7.57;3.85;;;;;;;;;;5052056;28;20383;-63
2022/10/05 09:43:25;;;;;;;4.88;3.90;;;;;;;;;;5060625;28;20045;-63
2022/10/05 09:45:53;;;;;;;4.88;3.92;;;;;;;;;;5063603;28;20095;-63
2022/10/05 09:48:20;;;;;;;5.85;3.78;;;;;;;;;;5052498;28;20467;-63
2022/10/05 09:51:05;;;;;;;6.78;3.80;;;;;;;;;;5061423;28;20040;-63
2022/10/05 09:53:50;;;;;;;4.38;3.67;;;;;;;;;;5059443;28;20058;-63
2022/10/05 09:56:20;;;;;;;4.45;3.85;;;;;;;;;;5052704;28;20044;-63
2022/10/05 09:58:55;;;;;;;4.38;3.55;;;;;;;;;;5025551;28;20403;-63
2022/10/05 10:01:21;;;;;;;5.60;3.72;;;;;;;;;;5049252;28;20127;-63
2022/10/05 10:03:50;;;;;;;5.00;3.90;;;;;;;;;;5033731;28;20045;-63
2022/10/05 10:06:23;;;;;;;6.53;4.95;;;;;;;;;;5042216;28;20037;-62
2022/10/05 10:08:59;;;;;;;5.82;3.90;;;;;;;;;;5051968;28;20041;-62
2022/10/05 10:11:54;;;;;;;6.00;4.20;;;;;;;;;;5024223;28;20057;-62
2022/10/05 10:14:39;;;;;;;6.20;4.75;;;;;;;;;;5051116;28;20037;-63
2022/10/05 10:17:15;;;;;;;5.20;3.97;;;;;;;;;;5048356;28;20044;-62
2022/10/05 10:19:47;;;;;;;6.05;4.40;;;;;;;;;;5051281;28;20101;-63
2022/10/05 10:22:31;;;;;;;4.90;4.35;;;;;;;;;;5050384;28;20040;-62
2022/10/05 10:25:18;;;;;;;6.57;4.47;;;;;;;;;;5051238;28;20407;-63
2022/10/05 10:27:44;;;;;;;7.32;4.32;;;;;;;;;;5053049;28;20048;-62
2022/10/05 10:30:28;;;;;;;5.80;4.22;;;;;;;;;;5050738;28;20164;-62
2022/10/05 10:32:55;;;;;;;4.82;4.32;;;;;;;;;;5047877;28;20041;-63
2022/10/05 10:35:27;;;;;;;7.35;4.38;;;;;;;;;;5055819;28;20045;-63
2022/10/05 10:38:04;;;;;;;7.97;4.22;;;;;;;;;;5059428;28;20060;-63
2022/10/05 10:40:49;;;;;;;6.43;4.00;;;;;;;;;;5032762;28;20049;-63
2022/10/05 10:43:15;;;;;;;5.78;4.13;;;;;;;;;;5049907;28;20040;-63
2022/10/05 10:46:02;;;;;;;6.97;4.38;;;;;;;;;;5054806;28;20040;-63
2022/10/05 10:48:28;;;;;;;6.78;4.10;;;;;;;;;;5051125;28;20123;-63
2022/10/05 10:51:13;;;;;;;6.72;4.30;;;;;;;;;;5050725;28;20091;-62
2022/10/05 10:53:39;;;;;;;4.68;4.03;;;;;;;;;;5063012;28;20041;-63
2022/10/05 10:56:05;;;;;;;4.63;3.85;;;;;;;;;;5037915;28;20054;-63
2022/10/05 10:58:34;;;;;;;4.57;3.80;;;;;;;;;;5022983;28;20411;-63
2022/10/05 11:01:11;;;;;;;6.40;3.70;;;;;;;;;;5047814;28;20387;-63
2022/10/05 11:03:40;;;;;;;4.85;4.35;;;;;;;;;;5050587;28;20040;-63
2022/10/05 11:06:18;;;;;;;5.72;3.75;;;;;;;;;;5032159;28;20384;-63
2022/10/05 11:09:03;;;;;;;5.63;3.88;;;;;;;;;;5048018;28;20043;-63
2022/10/05 11:11:35;;;;;;;6.22;3.58;;;;;;;;;;5049508;28;20064;-62
2022/10/05 11:14:27;;;;;;;6.13;3.85;;;;;;;;;;5048001;28;20052;-62
2022/10/05 11:16:53;;;;;;;5.75;4.18;;;;;;;;;;5018712;28;20083;-62
2022/10/05 11:19:33;;;;;;;4.88;3.42;;;;;;;;;;5049855;28;20519;-63
2022/10/05 11:22:18;;;;;;;11.23;4.38;;;;;;;;;;5015365;28;20487;-62
2022/10/05 11:25:03;;;;;;;6.60;3.92;;;;;;;;;;5047711;28;20048;-63
2022/10/05 11:27:49;;;;;;;4.35;3.92;;;;;;;;;;5049814;28;20152;-62
2022/10/05 11:30:42;;;;;;;4.72;3.55;;;;;;;;;;5008535;28;20053;-62
2022/10/05 11:33:25;;;;;;;4.07;3.58;;;;;;;;;;5046643;28;20472;-63
2022/10/05 11:35:53;;;;;;;5.18;3.33;;;;;;;;;;5050141;28;20052;-63
2022/10/05 11:38:29;;;;;;;3.53;3.20;;;;;;;;;;5046913;28;20045;-63
2022/10/05 11:41:07;;;;;;;4.78;3.30;;;;;;;;;;5031222;28;20140;-63
2022/10/05 11:43:46;;;;;;;5.20;2.97;;;;;;;;;;5032055;28;20071;-62
2022/10/05 11:46:29;;;;;;;4.80;2.75;;;;;;;;;;5029953;28;20041;-63
2022/10/05 11:48:59;;;;;;;6.03;3.30;;;;;;;;;;5051614;28;20409;-63
2022/10/05 11:51:33;;;;;;;4.00;2.95;;;;;;;;;;5049826;28;20090;-63
2022/10/05 11:54:02;;;;;;;5.32;3.17;;;;;;;;;;5051343;28;20037;-62
2022/10/05 11:56:34;;;;;;;4.47;2.78;;;;;;;;;;5052019;28;20036;-63
2022/10/05 11:59:00;;;;;;;4.75;3.00;;;;;;;;;;5046129;28;20052;-63
2022/10/05 12:01:37;;;;;;;4.78;2.67;;;;;;;;;;5052475;28;20611;-62
2022/10/05 12:04:22;;;;;;;4.93;2.88;;;;;;;;;;5049540;28;20040;-62
2022/10/05 12:06:55;;;;;;;5.82;2.95;;;;;;;;;;5050441;28;20033;-63
2022/10/05 12:09:27;;;;;;;4.32;2.88;;;;;;;;;;5044903;28;20407;-63
2022/10/05 12:11:53;;;;;;;5.63;3.17;;;;;;;;;;5051046;28;20041;-63
2022/10/05 12:14:37;;;;;;;6.90;3.25;;;;;;;;;;5048835;28;20644;-63
2022/10/05 12:17:12;;;;;;;5.43;3.20;;;;;;;;;;5049982;28;20039;-63
2022/10/05 12:19:48;;;;;;;9.05;3.30;;;;;;;;;;5031714;28;20049;-63
2022/10/05 12:22:17;;;;;;;5.80;3.28;;;;;;;;;;5026839;28;20071;-63
2022/10/05 12:25:05;;;;;;;5.38;3.47;;;;;;;;;;5057598;28;20044;-63
2022/10/05 12:27:34;;;;;;;5.07;3.20;;;;;;;;;;5058246;28;20060;-63
2022/10/05 12:30:00;;;;;;;4.30;3.10;;;;;;;;;;5050015;28;20079;-63
2022/10/05 12:32:49;;;;;;;4.45;3.40;;;;;;;;;;5052607;28;20107;-63
2022/10/05 12:35:17;;;;;;;7.15;3.80;;;;;;;;;;5035681;28;20041;-63
2022/10/05 12:37:53;;;;;;;5.88;3.47;;;;;;;;;;5056199;28;20041;-63
2022/10/05 12:40:25;;;;;;;6.10;3.13;;;;;;;;;;5048840;28;20098;-63
2022/10/05 12:42:54;;;;;;;5.25;3.45;;;;;;;;;;5053652;28;20051;-63
2022/10/05 12:45:31;;;;;;;6.05;3.45;;;;;;;;;;5053140;28;20055;-63
2022/10/05 12:48:17;;;;;;;8.65;4.00;;;;;;;;;;5052808;28;20040;-63
2022/10/05 12:50:51;;;;;;;4.93;3.38;;;;;;;;;;5050887;28;20490;-63
2022/10/05 12:53:27;;;;;;;9.15;4.07;;;;;;;;;;5050591;28;20128;-63
2022/10/05 12:56:00;;;;;;;7.20;4.35;;;;;;;;;;5052330;28;20167;-63
2022/10/05 12:58:26;;;;;;;7.63;4.38;;;;;;;;;;5035755;28;20052;-63
2022/10/05 13:00:56;;;;;;;6.32;3.60;;;;;;;;;;5052584;28;20045;-63
2022/10/05 13:03:33;;;;;;;9.00;4.22;;;;;;;;;;5068697;28;20086;-63
2022/10/05 13:06:06;;;;;;;6.47;4.20;;;;;;;;;;5056619;28;20041;-62
2022/10/05 13:08:35;;;;;;;4.72;3.70;;;;;;;;;;5034471;28;20099;-63
2022/10/05 13:11:08;;;;;;;7.45;4.00;;;;;;;;;;5052270;28;20061;-63
2022/10/05 13:13:34;;;;;;;6.55;4.05;;;;;;;;;;5053240;28;20037;-62
2022/10/05 13:16:18;;;;;;;5.63;3.92;;;;;;;;;;5072827;28;20032;-62
2022/10/05 13:18:53;;;;;;;6.20;3.50;;;;;;;;;;5062144;28;20040;-62
2022/10/05 13:21:24;;;;;;;7.68;3.65;;;;;;;;;;5053081;28;20119;-63
2022/10/05 13:23:50;;;;;;;4.63;3.30;;;;;;;;;;5052268;28;20059;-62
2022/10/05 13:26:18;;;;;;;5.32;3.55;;;;;;;;;;5052567;28;20036;-63
2022/10/05 13:28:50;;;;;;;7.20;3.67;;;;;;;;;;5052162;28;20102;-62
2022/10/05 13:31:40;;;;;;;10.50;3.60;;;;;;;;;;5052066;28;20041;-63
2022/10/05 13:34:24;;;;;;;5.80;3.40;;;;;;;;;;5051902;28;20033;-63
2022/10/05 13:37:03;;;;;;;7.07;3.40;;;;;;;;;;5052312;28;20052;-62
2022/10/05 13:39:40;;;;;;;6.00;3.70;;;;;;;;;;5067446;28;20036;-62
2022/10/05 13:42:12;;;;;;;6.90;3.40;;;;;;;;;;5049929;28;20065;-62
2022/10/05 13:44:38;;;;;;;;;;;;;;;;;;5072695;28;20093;-63
2022/10/05 13:47:19;;;;;;;4.20;3.30;;;;;;;;;;5043539;28;19999;-62
2022/10/05 13:49:53;;;;;;;5.38;3.35;;;;;;;;;;5055707;28;20045;-62
2022/10/05 13:52:28;;;;;;;3.65;3.25;;;;;;;;;;5046341;28;20048;-62
2022/10/05 13:54:54;;;;;;;3.92;3.38;;;;;;;;;;5051102;28;20037;-62
2022/10/05 13:57:33;;;;;;;5.72;3.08;;;;;;;;;;5051718;28;20576;-63
2022/10/05 14:00:05;;;;;;;4.70;3.10;;;;;;;;;;5060970;28;20056;-63
2022/10/05 14:02:37;;;;;;;5.40;3.15;;;;;;;;;;5052249;28;20399;-63
2022/10/05 14:05:15;;;;;;;5.72;3.30;;;;;;;;;;5051478;28;20032;-63
2022/10/05 14:07:52;;;;;;;4.72;3.25;;;;;;;;;;5053888;28;20060;-63
2022/10/05 14:10:39;;;;;;;4.25;3.00;;;;;;;;;;5044615;28;20083;-62
2022/10/05 14:13:19;;;;;;;4.88;3.03;;;;;;;;;;5050640;28;20060;-63
2022/10/05 14:16:03;;;;;;;6.18;3.20;;;;;;;;;;5051302;28;20040;-63
2022/10/05 14:18:30;;;;;;;6.78;3.03;;;;;;;;;;5057704;28;20040;-62
2022/10/05 14:21:05;;;;;;;7.88;3.10;;;;;;;;;;5071140;28;20094;-63
2022/10/05 14:23:31;;;;;;;5.85;3.35;;;;;;;;;;5051478;28;20056;-63
2022/10/05 14:25:57;;;;;;;3.92;2.90;;;;;;;;;;5051453;28;20044;-63
2022/10/05 14:28:42;;;;;;;4.65;2.60;;;;;;;;;;5051018;28;20045;-63
2022/10/05 14:31:26;;;;;;;6.10;3.40;;;;;;;;;;5050419;28;20049;-63
2022/10/05 14:33:52;;;;;;;5.82;3.90;;;;;;;;;;5050968;28;20045;-63
2022/10/05 14:36:42;;;;;;;5.53;2.97;;;;;;;;;;5056764;28;20641;-63
2022/10/05 14:39:12;;;;;;;4.22;3.45;;;;;;;;;;5068752;28;20105;-63
2022/10/05 14:41:45;;;;;;;4.80;3.08;;;;;;;;;;5051193;28;20049;-63
2022/10/05 14:44:15;;;;;;;5.28;3.20;;;;;;;;;;5051000;28;20063;-63
2022/10/05 14:46:53;;;;;;;3.30;2.92;;;;;;;;;;5051614;28;20076;-63
2022/10/05 14:49:26;;;;;;;6.63;3.10;;;;;;;;;;5063776;28;20067;-63
2022/10/05 14:51:53;;;;;;;4.82;3.30;;;;;;;;;;5063439;28;20283;-63
2022/10/05 14:54:45;;;;;;;4.70;3.35;;;;;;;;;;5051628;28;20047;-63
2022/10/05 14:57:17;;;;;;;4.80;3.20;;;;;;;;;;5030608;28;20138;-63
2022/10/05 14:59:44;;;;;;;;;;;;;;;;;;5050702;28;20041;-63
2022/10/05 15:02:30;;;;;;;7.10;2.78;;;;;;;;;;5033034;28;19917;-63
2022/10/05 15:05:32;;;;;;;7.95;3.22;;;;;;;;;;5049876;28;20098;-63
2022/10/05 15:08:01;;;;;;;6.55;3.20;;;;;;;;;;5012634;28;20052;-63
2022/10/05 15:10:32;;;;;;;5.20;2.75;;;;;;;;;;5049744;28;20052;-63
2022/10/05 15:13:10;;;;;;;6.65;3.15;;;;;;;;;;5032505;28;20471;-63
2022/10/05 15:15:42;;;;;;;4.72;3.10;;;;;;;;;;5051016;28;20031;-63
2022/10/05 15:18:21;;;;;;;6.43;2.80;;;;;;;;;;5051289;28;20049;-63
2022/10/05 15:21:11;;;;;;;4.47;2.90;;;;;;;;;;5051205;28;20450;-63
2022/10/05 15:23:41;;;;;;;5.28;2.85;;;;;;;;;;5051005;28;20039;-63
2022/10/05 15:26:26;;;;;;;8.63;3.13;;;;;;;;;;5051114;28;20659;-63